Wymer, West Virginia
Current Conditions -  °F | °C
As of 9:51 PM on Monday 22 Dec 2014 (Local Time) from KEKN Reporting Station
Overcast Overcast  
Wind Chill: 42°   Ceiling: 9000
Heat Index: 45°   Visibility: 10mi
Dew Point: 39°   Wind: 6mph
Humidity: 80%   Direction: 170°S
Pressure: 29.94"   Gusts: NA
Location:  38.9499°N, 79.6438°W
Report Text: KEKN 230251Z AUTO 17005KT 10SM OVC090 07/04 A2994 RMK AO2 SLP157 T00720039 58007 TSNO
Loading
Personal Weather Stations






























Interactive Weather Map New forecast layout! Learn more

10-Day Weather Forecast

Advertisements
Track Severe Weather on mobile